Latest Coastal Weather Observations for Noarlunga

IDS60701

Issued at 2:55 am CDT Saturday 1 November 2014 (issued every 10 minutes, with the page automatically refreshed every 10 minutes)

About coastal observations | Map of coastal stations | Coastal observations for SA | Marine services | Other Formats
Station Details ID: 023885 Name: NOARLUNGA Lat: -35.16 Lon: 138.51 Height: 55.0 m
Data from the previous 72 hours. | See also: Recent months at Noarlunga
Date/Time
CDT
Temp

°C
Wind Pressure Rain
since 9am
mm
Weather Cloud Vis
km
Sea
Height
m
Swell
Dir
 
Speed
knots
Gust
knots
hPa Trend Height
m
Period
s
Dir
01/02:43am 13.8 WSW 15 25 - - 1.6 - - - - - - -
01/02:30am 13.5 WSW 13 26 - - 1.4 - - - - - - -
01/02:26am 13.6 WSW 15 26 - - 1.4 - - - - - - -
01/02:23am 13.8 SW 17 26 - - 1.2 - - - - - - -
01/02:00am 15.2 W 10 16 - - 1.0 - - - - - - -
01/01:30am 15.2 W 8 13 - - 1.0 - - - - - - -
01/01:00am 15.1 W 9 15 - - 1.0 - - - - - - -
01/12:30am 15.1 W 7 13 - - 1.0 - - - - - - -
01/12:00am 15.3 W 8 14 - - 1.0 - - - - - - -
 
Date/Time
CDT
Temp

°C
Wind Pressure Rain
since 9am
mm
Weather Cloud Vis
km
Sea
Height
m
Swell
Dir
 
Speed
knots
Gust
knots
hPa Trend Height
m
Period
s
Dir
31/11:30pm 15.3 W 6 11 - - 1.0 - - - - - - -
31/11:00pm 15.4 W 5 11 - - 1.0 - - - - - - -
31/10:30pm 15.4 WNW 2 3 - - 1.0 - - - - - - -
31/10:00pm 15.6 CALM 0 0 - - 1.0 - - - - - - -
31/09:30pm 15.2 W 2 5 - - 1.0 - - - - - - -
31/09:00pm 16.4 SW 7 12 - - 0.4 Rain - - - - - -
31/08:30pm 17.3 SW 10 15 - - 0.0 - - - - - - -
31/08:00pm 17.6 WSW 14 21 - - 0.0 - - - - - - -
31/07:30pm 18.8 SW 7 13 - - 0.0 - - - - - - -
31/07:00pm 17.9 WSW 5 11 - - 0.0 - - - - - - -
31/06:30pm 19.1 WSW 9 16 - - 0.0 - - - - - - -
31/06:00pm 21.5 SW 5 9 - - 0.0 - - - - - - -
31/05:30pm 22.4 WSW 4 6 - - 0.0 - - - - - - -
31/05:00pm 24.2 SSW 4 6 - - 0.0 - - - - - - -
31/04:30pm 23.6 SW 6 12 - - 0.0 - - - - - - -
31/04:00pm 25.0 WSW 10 16 - - 0.0 - - - - - - -
31/03:30pm 27.0 SW 6 10 - - 0.0 - - - - - - -
31/03:00pm 28.4 WNW 7 11 - - 0.0 - - - - - - -
31/02:30pm 29.1 WNW 3 6 - - 0.0 - - - - - - -
31/02:00pm 27.6 WNW 5 11 - - 0.0 - - - - - - -
31/01:30pm 31.5 NW 14 22 - - 0.0 - - - - - - -
31/01:00pm 32.8 NNW 16 25 - - 0.0 - - - - - - -
31/12:30pm 33.1 N 14 22 - - 0.0 - - - - - - -
31/12:02pm 32.5 N 15 25 - - 0.0 - - - - - - -
31/12:00pm 32.1 N 17 25 - - 0.0 - - - - - - -
31/11:30am 32.1 N 18 28 - - 0.0 - - - - - - -
31/11:02am 32.2 N 15 26 - - 0.0 - - - - - - -
31/11:00am 31.8 N 16 26 - - 0.0 - - - - - - -
31/10:30am 31.8 N 15 22 - - 0.0 - - - - - - -
31/10:00am 29.9 N 17 24 - - 0.0 - - - - - - -
31/09:30am 28.8 N 14 20 - - 0.0 - - - - - - -
31/09:00am 27.1 NNE 15 24 - - 0.0 - - - - - - -
31/08:30am 27.6 NNE 14 20 - - 0.0 - - - - - - -
31/08:12am 26.4 N 11 15 - - 0.0 - - - - - - -
31/08:00am 21.4 SSW 2 5 - - 0.0 - - - - - - -
31/07:30am 18.7 S 1 2 - - 0.0 - - - - - - -
31/07:00am 17.8 CALM 0 0 - - 0.0 - - - - - - -
31/06:30am 16.2 ENE 1 3 - - 0.0 - - - - - - -
31/06:00am 17.5 NNE 1 3 - - 0.0 - - - - - - -
31/05:30am 18.9 ENE 2 4 - - 0.0 - - - - - - -
31/05:00am 19.4 ENE 7 11 - - 0.0 - - - - - - -
31/04:30am 19.7 E 10 13 - - 0.0 - - - - - - -
31/04:00am 19.6 E 9 13 - - 0.0 - - - - - - -
31/03:30am 19.8 ENE 11 16 - - 0.0 - - - - - - -
31/03:00am 19.9 ENE 11 15 - - 0.0 - - - - - - -
31/02:30am 19.8 ENE 8 13 - - 0.0 - - - - - - -
31/02:00am 19.5 ENE 11 14 - - 0.0 - - - - - - -
31/01:30am 19.4 ENE 11 14 - - 0.0 - - - - - - -
31/01:00am 19.5 E 9 13 - - 0.0 - - - - - - -
31/12:30am 19.0 E 8 10 - - 0.0 - - - - - - -
31/12:00am 18.6 E 9 11 - - 0.0 - - - - - - -
 
Date/Time
CDT
Temp

°C
Wind Pressure Rain
since 9am
mm
Weather Cloud Vis
km
Sea
Height
m
Swell
Dir
 
Speed
knots
Gust
knots
hPa Trend Height
m
Period
s
Dir
30/11:30pm 19.3 E 8 10 - - 0.0 - - - - - - -
30/11:00pm 20.1 E 5 8 - - 0.0 - - - - - - -
30/10:30pm 20.3 E 7 11 - - 0.0 - - - - - - -
30/10:00pm 19.6 E 6 8 - - 0.0 - - - - - - -
30/09:30pm 19.3 E 7 9 - - 0.0 - - - - - - -
30/09:00pm 19.1 E 5 7 - - 0.0 - - - - - - -
30/08:30pm 19.5 E 7 10 - - 0.0 - - - - - - -
30/08:00pm 19.4 ESE 2 3 - - 0.0 - - - - - - -
30/07:30pm 20.2 SSW 1 2 - - 0.0 - - - - - - -
30/07:00pm 21.0 WSW 4 5 - - 0.0 - - - - - - -
30/06:30pm 21.7 SW 2 3 - - 0.0 - - - - - - -
30/06:00pm 21.2 SW 3 5 - - 0.0 - - - - - - -
30/05:30pm 20.8 W 4 7 - - 0.0 - - - - - - -
30/05:00pm 20.6 SW 4 6 - - 0.0 - - - - - - -
30/04:30pm 20.7 WSW 5 9 - - 0.0 - - - - - - -
30/04:00pm 20.8 WSW 6 9 - - 0.0 - - - - - - -
30/03:30pm 21.0 SW 7 10 - - 0.0 - - - - - - -
30/03:00pm 21.5 W 8 12 - - 0.0 - - - - - - -
30/02:30pm 21.8 WNW 8 11 - - 0.0 - - - - - - -
30/02:00pm 22.0 WNW 3 5 - - 0.0 - - - - - - -
30/01:30pm 21.2 W 5 7 - - 0.0 - - - - - - -
30/01:00pm 20.7 W 6 8 - - 0.0 - - - - - - -
30/12:30pm 20.3 WSW 4 7 - - 0.0 - - - - - - -
30/12:00pm 19.5 WNW 6 8 - - 0.0 - - - - - - -
30/11:30am 18.9 W 6 9 - - 0.0 - - - - - - -
30/11:00am 18.9 W 7 11 - - 0.0 - - - - - - -
30/10:30am 18.9 N 3 8 - - 0.0 - - - - - - -
30/10:00am 17.6 N 2 5 - - 0.0 - - - - - - -
30/09:30am 18.0 E 4 8 - - 0.0 - - - - - - -
30/09:00am 16.6 E 4 7 - - 0.0 - - - - - - -
30/08:30am 15.9 E 5 6 - - 0.0 - - - - - - -
30/08:00am 14.2 ESE 5 8 - - 0.0 - - - - - - -
30/07:30am 12.9 ESE 5 8 - - 0.0 - - - - - - -
30/07:00am 11.8 ESE 5 8 - - 0.0 - - - - - - -
30/06:30am 10.7 WSW 2 3 - - 0.0 - - - - - - -
30/06:00am 11.3 ENE 5 7 - - 0.0 - - - - - - -
30/05:30am 11.2 ENE 5 7 - - 0.0 - - - - - - -
30/05:00am 10.8 ESE 5 7 - - 0.0 - - - - - - -
30/04:30am 11.4 SE 5 7 - - 0.0 - - - - - - -
30/04:00am 11.3 ESE 4 7 - - 0.0 - - - - - - -
30/03:30am 11.7 E 4 6 - - 0.0 - - - - - - -
30/03:00am 12.2 E 6 8 - - 0.0 - - - - - - -
30/02:30am 12.2 E 6 7 - - 0.0 - - - - - - -
30/02:00am 12.5 E 6 8 - - 0.0 - - - - - - -
30/01:30am 12.4 ESE 6 7 - - 0.0 - - - - - - -
30/01:00am 12.4 E 6 8 - - 0.0 - - - - - - -
30/12:30am 12.7 E 5 7 - - 0.0 - - - - - - -
30/12:00am 12.9 ESE 6 7 - - 0.0 - - - - - - -
 
Date/Time
CDT
Temp

°C
Wind Pressure Rain
since 9am
mm
Weather Cloud Vis
km
Sea
Height
m
Swell
Dir
 
Speed
knots
Gust
knots
hPa Trend Height
m
Period
s
Dir
29/11:30pm 13.2 ESE 5 8 - - 0.0 - - - - - - -
29/11:00pm 13.7 ESE 4 5 - - 0.0 - - - - - - -
29/10:30pm 14.1 ESE 4 5 - - 0.0 - - - - - - -
29/10:00pm 14.1 SSE 4 7 - - 0.0 - - - - - - -
29/09:30pm 14.2 SE 3 6 - - 0.0 - - - - - - -
29/09:00pm 14.8 ESE 3 5 - - 0.0 - - - - - - -
29/08:30pm 15.4 CALM 0 2 - - 0.0 - - - - - - -
29/08:00pm 15.9 SSW 4 8 - - 0.0 - - - - - - -
29/07:30pm 16.7 SSW 5 8 - - 0.0 - - - - - - -
29/07:00pm 18.0 SW 5 7 - - 0.0 - - - - - - -
29/06:30pm 17.9 SSW 6 10 - - 0.0 - - - - - - -
29/06:00pm 18.1 SW 6 10 - - 0.0 - - - - - - -
29/05:30pm 19.1 SSW 6 10 - - 0.0 - - - - - - -
29/05:00pm 20.5 WSW 7 10 - - 0.0 - - - - - - -
29/04:30pm 20.8 WSW 4 7 - - 0.0 - - - - - - -
29/04:00pm 20.7 WSW 5 9 - - 0.0 - - - - - - -
29/03:30pm 21.1 WNW 5 10 - - 0.0 - - - - - - -
29/03:00pm 20.1 W 7 11 - - 0.0 - - - - - - -
29/02:30pm 20.8 N 5 9 - - 0.0 - - - - - - -
29/02:00pm 20.1 WNW 5 8 - - 0.0 - - - - - - -
29/01:30pm 18.8 W 6 10 - - 0.0 - - - - - - -
29/01:00pm 18.7 W 7 11 - - 0.0 - - - - - - -
29/12:30pm 18.9 W 7 13 - - 0.0 - - - - - - -
29/12:00pm 18.9 WNW 8 13 - - 0.0 - - - - - - -
29/11:30am 18.5 NW 8 14 - - 0.0 - - - - - - -
29/11:00am 18.7 NW 8 11 - - 0.0 - - - - - - -
29/10:30am 17.2 WNW 7 11 - - 0.0 - - - - - - -
29/10:00am 18.2 NNW 7 11 - - 0.0 - - - - - - -
29/09:30am 16.2 WNW 6 9 - - 0.0 - - - - - - -
29/09:00am 15.7 NNW 3 5 - - 0.0 - - - - - - -
29/08:30am 15.2 NNW 3 5 - - 0.0 - - - - - - -
29/08:00am 14.9 NNW 2 4 - - 0.0 - - - - - - -
29/07:30am 14.2 NNE 2 3 - - 0.0 - - - - - - -
29/07:00am 13.7 NE 2 3 - - 0.0 - - - - - - -
29/06:30am 13.0 ENE 1 2 - - 0.0 - - - - - - -
29/06:00am 13.3 NE 2 3 - - 0.0 - - - - - - -
29/05:30am 13.1 ENE 2 3 - - 0.0 - - - - - - -
29/05:00am 13.6 NE 3 5 - - 0.0 - - - - - - -
29/04:30am 13.9 CALM 0 0 - - 0.0 - - - - - - -
29/04:00am 13.8 CALM 0 0 - - 0.0 - - - - - - -
29/03:30am 13.6 CALM 0 0 - - 0.0 - - - - - - -
29/03:00am 14.1 CALM 0 0 - - 0.0 - - - - - - -

Other Formats:

Comma delimited format used in spreadsheet applications
http://www.bom.gov.au/fwo/IDS60701/IDS60701.94808.axf

JavaScript Object Notation format (JSON) in row-major order
http://www.bom.gov.au/fwo/IDS60701/IDS60701.94808.json